sensor_id;sensor_type;location;lat;lon;timestamp;pressure;altitude;pressure_sealevel;temperature;humidity
60852;BME280;48553;50.766;2.900;2023-02-11T00:02:39;102922.75;;;6.16;84.24
60852;BME280;48553;50.766;2.900;2023-02-11T00:05:40;102921.91;;;6.16;84.04
60852;BME280;48553;50.766;2.900;2023-02-11T00:08:40;102919.78;;;6.18;84.08
60852;BME280;48553;50.766;2.900;2023-02-11T00:11:41;102921.34;;;6.14;84.38
60852;BME280;48553;50.766;2.900;2023-02-11T00:14:41;102904.19;;;6.13;84.18
60852;BME280;48553;50.766;2.900;2023-02-11T00:17:42;102900.31;;;6.09;84.12
60852;BME280;48553;50.766;2.900;2023-02-11T00:20:42;102902.53;;;6.12;84.04
60852;BME280;48553;50.766;2.900;2023-02-11T00:23:44;102909.81;;;6.06;84.60
60852;BME280;48553;50.766;2.900;2023-02-11T00:26:45;102904.63;;;6.05;84.45
60852;BME280;48553;50.766;2.900;2023-02-11T00:29:45;102905.69;;;6.04;84.63
60852;BME280;48553;50.766;2.900;2023-02-11T00:32:46;102904.63;;;6.05;84.54
60852;BME280;48553;50.766;2.900;2023-02-11T00:35:46;102911.13;;;6.04;84.51
60852;BME280;48553;50.766;2.900;2023-02-11T00:38:47;102908.34;;;5.99;84.62
60852;BME280;48553;50.766;2.900;2023-02-11T00:41:49;102904.56;;;6.00;84.50
60852;BME280;48553;50.766;2.900;2023-02-11T00:44:49;102905.63;;;5.99;84.71
60852;BME280;48553;50.766;2.900;2023-02-11T00:47:50;102906.19;;;6.01;84.42
60852;BME280;48553;50.766;2.900;2023-02-11T00:50:50;102902.59;;;5.95;84.90
60852;BME280;48553;50.766;2.900;2023-02-11T00:53:50;102897.97;;;5.96;84.79
60852;BME280;48553;50.766;2.900;2023-02-11T00:56:51;102894.06;;;5.92;85.17
60852;BME280;48553;50.766;2.900;2023-02-11T00:59:51;102897.88;;;5.91;84.78
60852;BME280;48553;50.766;2.900;2023-02-11T01:02:52;102893.56;;;5.95;84.87
60852;BME280;48553;50.766;2.900;2023-02-11T01:05:53;102897.59;;;5.92;84.86
60852;BME280;48553;50.766;2.900;2023-02-11T01:08:53;102883.75;;;5.94;84.84
60852;BME280;48553;50.766;2.900;2023-02-11T01:11:54;102883.41;;;5.90;84.83
60852;BME280;48553;50.766;2.900;2023-02-11T01:14:54;102883.69;;;5.89;85.18
60852;BME280;48553;50.766;2.900;2023-02-11T01:17:54;102877.09;;;5.84;85.33
60852;BME280;48553;50.766;2.900;2023-02-11T01:20:55;102873.28;;;5.85;85.38
60852;BME280;48553;50.766;2.900;2023-02-11T01:23:55;102873.63;;;5.89;85.07
60852;BME280;48553;50.766;2.900;2023-02-11T01:26:56;102877.16;;;5.90;85.61
60852;BME280;48553;50.766;2.900;2023-02-11T01:29:56;102867.84;;;5.85;85.57
60852;BME280;48553;50.766;2.900;2023-02-11T01:32:57;102863.78;;;5.88;85.61
60852;BME280;48553;50.766;2.900;2023-02-11T01:36:02;102865.22;;;5.91;85.87
60852;BME280;48553;50.766;2.900;2023-02-11T01:39:03;102869.22;;;5.88;86.11
60852;BME280;48553;50.766;2.900;2023-02-11T01:42:04;102860.25;;;5.88;86.12
60852;BME280;48553;50.766;2.900;2023-02-11T01:45:41;102861.91;;;5.89;86.10
60852;BME280;48553;50.766;2.900;2023-02-11T01:52:16;102860.53;;;5.86;86.48
60852;BME280;48553;50.766;2.900;2023-02-11T01:55:18;102866.22;;;5.84;86.74
60852;BME280;48553;50.766;2.900;2023-02-11T01:58:40;102859.94;;;5.84;86.76
60852;BME280;48553;50.766;2.900;2023-02-11T02:01:44;102860.78;;;5.84;86.53
60852;BME280;48553;50.766;2.900;2023-02-11T02:04:54;102852.38;;;5.86;86.46
60852;BME280;48553;50.766;2.900;2023-02-11T02:11:00;102854.19;;;5.80;86.68
60852;BME280;48553;50.766;2.900;2023-02-11T02:14:02;102857.22;;;5.84;86.67
60852;BME280;48553;50.766;2.900;2023-02-11T02:17:03;102852.84;;;5.83;86.96
60852;BME280;48553;50.766;2.900;2023-02-11T02:30:56;102834.63;;;5.83;86.79
60852;BME280;48553;50.766;2.900;2023-02-11T02:34:08;102840.31;;;5.82;87.35
60852;BME280;48553;50.766;2.900;2023-02-11T02:37:17;102836.22;;;5.79;87.10
60852;BME280;48553;50.766;2.900;2023-02-11T02:40:31;102841.38;;;5.81;86.93
60852;BME280;48553;50.766;2.900;2023-02-11T02:43:33;102840.81;;;5.79;87.13
60852;BME280;48553;50.766;2.900;2023-02-11T02:46:35;102837.84;;;5.80;87.01
60852;BME280;48553;50.766;2.900;2023-02-11T02:49:36;102841.66;;;5.79;86.95
60852;BME280;48553;50.766;2.900;2023-02-11T03:00:04;102817.94;;;5.75;87.11
60852;BME280;48553;50.766;2.900;2023-02-11T03:09:51;102823.84;;;5.72;86.93
60852;BME280;48553;50.766;2.900;2023-02-11T03:12:55;102824.94;;;5.71;86.79
60852;BME280;48553;50.766;2.900;2023-02-11T03:15:58;102828.16;;;5.68;87.07
60852;BME280;48553;50.766;2.900;2023-02-11T03:22:21;102818.34;;;5.67;87.18
60852;BME280;48553;50.766;2.900;2023-02-11T03:25:36;102820.50;;;5.64;86.86
60852;BME280;48553;50.766;2.900;2023-02-11T03:38:31;102792.72;;;5.62;86.57
60852;BME280;48553;50.766;2.900;2023-02-11T03:41:32;102790.00;;;5.62;86.62
60852;BME280;48553;50.766;2.900;2023-02-11T03:44:38;102784.84;;;5.61;86.57
60852;BME280;48553;50.766;2.900;2023-02-11T03:47:45;102787.78;;;5.59;86.62
60852;BME280;48553;50.766;2.900;2023-02-11T03:50:47;102797.00;;;5.58;86.42
60852;BME280;48553;50.766;2.900;2023-02-11T03:53:51;102797.84;;;5.59;86.46
60852;BME280;48553;50.766;2.900;2023-02-11T03:56:56;102806.50;;;5.56;86.47
60852;BME280;48553;50.766;2.900;2023-02-11T03:59:58;102805.94;;;5.54;86.41
60852;BME280;48553;50.766;2.900;2023-02-11T04:02:58;102812.69;;;5.51;86.27
60852;BME280;48553;50.766;2.900;2023-02-11T04:05:58;102823.56;;;5.51;86.37
60852;BME280;48553;50.766;2.900;2023-02-11T04:08:59;102821.66;;;5.52;86.40
60852;BME280;48553;50.766;2.900;2023-02-11T04:11:59;102817.88;;;5.53;86.37
60852;BME280;48553;50.766;2.900;2023-02-11T04:15:00;102810.56;;;5.53;86.52
60852;BME280;48553;50.766;2.900;2023-02-11T04:18:00;102818.41;;;5.50;86.61
60852;BME280;48553;50.766;2.900;2023-02-11T04:21:02;102811.31;;;5.49;86.63
60852;BME280;48553;50.766;2.900;2023-02-11T04:24:03;102814.03;;;5.49;86.80
60852;BME280;48553;50.766;2.900;2023-02-11T04:27:03;102806.44;;;5.51;86.91
60852;BME280;48553;50.766;2.900;2023-02-11T04:30:04;102808.91;;;5.52;86.77
60852;BME280;48553;50.766;2.900;2023-02-11T04:33:05;102810.78;;;5.52;87.01
60852;BME280;48553;50.766;2.900;2023-02-11T04:36:06;102818.94;;;5.52;87.08
60852;BME280;48553;50.766;2.900;2023-02-11T04:39:06;102814.84;;;5.49;87.02
60852;BME280;48553;50.766;2.900;2023-02-11T04:42:07;102824.97;;;5.54;86.99
60852;BME280;48553;50.766;2.900;2023-02-11T04:45:07;102825.22;;;5.52;87.46
60852;BME280;48553;50.766;2.900;2023-02-11T04:48:08;102831.25;;;5.54;87.26
60852;BME280;48553;50.766;2.900;2023-02-11T04:51:08;102827.69;;;5.54;87.25
60852;BME280;48553;50.766;2.900;2023-02-11T04:54:09;102812.44;;;5.53;87.16
60852;BME280;48553;50.766;2.900;2023-02-11T04:57:09;102816.22;;;5.52;87.31
60852;BME280;48553;50.766;2.900;2023-02-11T05:00:10;102817.06;;;5.52;87.56
60852;BME280;48553;50.766;2.900;2023-02-11T05:03:11;102823.31;;;5.53;87.62
60852;BME280;48553;50.766;2.900;2023-02-11T05:06:11;102819.53;;;5.54;87.71
60852;BME280;48553;50.766;2.900;2023-02-11T05:09:13;102813.03;;;5.55;87.63
60852;BME280;48553;50.766;2.900;2023-02-11T05:12:14;102811.94;;;5.56;87.71
60852;BME280;48553;50.766;2.900;2023-02-11T05:15:14;102813.84;;;5.55;87.81
60852;BME280;48553;50.766;2.900;2023-02-11T05:18:15;102815.75;;;5.55;87.75
60852;BME280;48553;50.766;2.900;2023-02-11T05:21:17;102829.91;;;5.57;87.41
60852;BME280;48553;50.766;2.900;2023-02-11T05:24:18;102829.06;;;5.56;87.90
60852;BME280;48553;50.766;2.900;2023-02-11T05:27:19;102826.34;;;5.56;87.84
60852;BME280;48553;50.766;2.900;2023-02-11T05:30:19;102821.75;;;5.57;88.11
60852;BME280;48553;50.766;2.900;2023-02-11T05:33:20;102822.56;;;5.57;88.10
60852;BME280;48553;50.766;2.900;2023-02-11T05:36:20;102834.03;;;5.59;87.83
60852;BME280;48553;50.766;2.900;2023-02-11T05:39:20;102837.81;;;5.58;88.25
60852;BME280;48553;50.766;2.900;2023-02-11T05:42:21;102834.03;;;5.59;87.89
60852;BME280;48553;50.766;2.900;2023-02-11T05:45:21;102823.16;;;5.59;88.03
60852;BME280;48553;50.766;2.900;2023-02-11T05:48:22;102821.25;;;5.60;88.22
60852;BME280;48553;50.766;2.900;2023-02-11T05:51:22;102828.84;;;5.58;88.31
60852;BME280;48553;50.766;2.900;2023-02-11T05:54:24;102823.16;;;5.59;88.58
60852;BME280;48553;50.766;2.900;2023-02-11T05:57:24;102827.78;;;5.59;88.54
60852;BME280;48553;50.766;2.900;2023-02-11T06:00:25;102817.47;;;5.61;88.80
60852;BME280;48553;50.766;2.900;2023-02-11T06:03:25;102817.19;;;5.62;88.75
60852;BME280;48553;50.766;2.900;2023-02-11T06:06:26;102825.63;;;5.61;88.92
60852;BME280;48553;50.766;2.900;2023-02-11T06:09:26;102812.03;;;5.61;88.97
60852;BME280;48553;50.766;2.900;2023-02-11T06:12:27;102819.91;;;5.62;88.98
60852;BME280;48553;50.766;2.900;2023-02-11T06:15:27;102820.75;;;5.63;88.93
60852;BME280;48553;50.766;2.900;2023-02-11T06:18:28;102818.03;;;5.63;88.90
60852;BME280;48553;50.766;2.900;2023-02-11T06:21:28;102813.16;;;5.65;89.00
60852;BME280;48553;50.766;2.900;2023-02-11T06:24:29;102815.06;;;5.64;89.03
60852;BME280;48553;50.766;2.900;2023-02-11T06:27:29;102809.63;;;5.64;89.09
60852;BME280;48553;50.766;2.900;2023-02-11T06:30:29;102804.41;;;5.63;89.40
60852;BME280;48553;50.766;2.900;2023-02-11T06:33:30;102803.94;;;5.66;89.19
60852;BME280;48553;50.766;2.900;2023-02-11T06:36:30;102806.38;;;5.68;89.29
60852;BME280;48553;50.766;2.900;2023-02-11T06:39:31;102820.84;;;5.68;89.18
60852;BME280;48553;50.766;2.900;2023-02-11T06:42:31;102812.91;;;5.67;89.44
60852;BME280;48553;50.766;2.900;2023-02-11T06:45:32;102817.78;;;5.64;89.49
60852;BME280;48553;50.766;2.900;2023-02-11T06:48:32;102817.78;;;5.64;89.33
60852;BME280;48553;50.766;2.900;2023-02-11T06:51:33;102818.88;;;5.63;89.32
60852;BME280;48553;50.766;2.900;2023-02-11T06:54:33;102809.63;;;5.64;89.58
60852;BME280;48553;50.766;2.900;2023-02-11T06:57:34;102818.03;;;5.63;89.63
60852;BME280;48553;50.766;2.900;2023-02-11T07:00:35;102816.38;;;5.62;89.51
60852;BME280;48553;50.766;2.900;2023-02-11T07:03:37;102819.09;;;5.62;89.45
60852;BME280;48553;50.766;2.900;2023-02-11T07:06:38;102819.91;;;5.62;89.43
60852;BME280;48553;50.766;2.900;2023-02-11T07:09:39;102819.91;;;5.62;89.25
60852;BME280;48553;50.766;2.900;2023-02-11T07:12:39;102828.91;;;5.63;89.30
60852;BME280;48553;50.766;2.900;2023-02-11T07:15:40;102839.22;;;5.61;89.54
60852;BME280;48553;50.766;2.900;2023-02-11T07:18:41;102844.09;;;5.59;89.53
60852;BME280;48553;50.766;2.900;2023-02-11T07:21:42;102843.53;;;5.57;89.62
60852;BME280;48553;50.766;2.900;2023-02-11T07:24:42;102844.34;;;5.57;89.32
60852;BME280;48553;50.766;2.900;2023-02-11T07:27:43;102842.44;;;5.58;89.58
60852;BME280;48553;50.766;2.900;2023-02-11T07:30:43;102848.69;;;5.58;89.65
60852;BME280;48553;50.766;2.900;2023-02-11T07:33:43;102861.00;;;5.61;89.34
60852;BME280;48553;50.766;2.900;2023-02-11T07:36:45;102866.44;;;5.61;89.30
60852;BME280;48553;50.766;2.900;2023-02-11T07:39:45;102861.00;;;5.61;89.57
60852;BME280;48553;50.766;2.900;2023-02-11T07:42:45;102866.16;;;5.62;89.44
60852;BME280;48553;50.766;2.900;2023-02-11T07:45:46;102861.53;;;5.63;89.59
60852;BME280;48553;50.766;2.900;2023-02-11T07:48:46;102878.72;;;5.63;89.59
60852;BME280;48553;50.766;2.900;2023-02-11T07:51:47;102887.94;;;5.62;89.71
60852;BME280;48553;50.766;2.900;2023-02-11T07:54:48;102881.91;;;5.60;89.78
60852;BME280;48553;50.766;2.900;2023-02-11T07:57:48;102880.34;;;5.64;89.67
60852;BME280;48553;50.766;2.900;2023-02-11T08:00:49;102889.91;;;5.67;89.56
60852;BME280;48553;50.766;2.900;2023-02-11T08:03:50;102896.16;;;5.68;89.49
60852;BME280;48553;50.766;2.900;2023-02-11T08:06:51;102892.63;;;5.67;89.74
60852;BME280;48553;50.766;2.900;2023-02-11T08:09:53;102884.44;;;5.67;89.94
60852;BME280;48553;50.766;2.900;2023-02-11T08:12:54;102884.44;;;5.67;89.91
60852;BME280;48553;50.766;2.900;2023-02-11T08:15:56;102889.66;;;5.69;90.15
60852;BME280;48553;50.766;2.900;2023-02-11T08:18:59;102896.50;;;5.71;90.15
60852;BME280;48553;50.766;2.900;2023-02-11T08:22:00;102890.22;;;5.71;90.29
60852;BME280;48553;50.766;2.900;2023-02-11T08:25:00;102898.63;;;5.69;90.45
60852;BME280;48553;50.766;2.900;2023-02-11T08:28:01;102898.13;;;5.72;90.34
60852;BME280;48553;50.766;2.900;2023-02-11T08:31:10;102898.69;;;5.74;90.45
60852;BME280;48553;50.766;2.900;2023-02-11T08:34:12;102905.81;;;5.75;90.29
60852;BME280;48553;50.766;2.900;2023-02-11T08:37:13;102913.47;;;5.78;90.24
60852;BME280;48553;50.766;2.900;2023-02-11T08:40:13;102908.59;;;5.80;90.36
60852;BME280;48553;50.766;2.900;2023-02-11T08:43:14;102904.25;;;5.79;90.61
60852;BME280;48553;50.766;2.900;2023-02-11T08:46:17;102910.81;;;5.83;90.43
60852;BME280;48553;50.766;2.900;2023-02-11T08:49:18;102914.94;;;5.86;90.43
60852;BME280;48553;50.766;2.900;2023-02-11T08:52:19;102904.13;;;5.91;89.96
60852;BME280;48553;50.766;2.900;2023-02-11T08:55:20;102909.56;;;5.91;90.07
60852;BME280;48553;50.766;2.900;2023-02-11T08:58:21;102923.75;;;5.93;89.71
60852;BME280;48553;50.766;2.900;2023-02-11T09:01:26;102910.75;;;5.95;89.45
60852;BME280;48553;50.766;2.900;2023-02-11T09:04:27;102905.88;;;5.97;89.52
60852;BME280;48553;50.766;2.900;2023-02-11T09:07:27;102907.28;;;6.00;89.16
60852;BME280;48553;50.766;2.900;2023-02-11T09:10:29;102909.72;;;6.01;89.12
60852;BME280;48553;50.766;2.900;2023-02-11T09:13:30;102917.41;;;6.04;88.97
60852;BME280;48553;50.766;2.900;2023-02-11T09:16:34;102925.31;;;6.06;89.27
60852;BME280;48553;50.766;2.900;2023-02-11T09:19:34;102919.63;;;6.07;89.46
60852;BME280;48553;50.766;2.900;2023-02-11T09:22:35;102917.22;;;6.11;89.33
60852;BME280;48553;50.766;2.900;2023-02-11T09:25:38;102918.88;;;6.12;89.31
60852;BME280;48553;50.766;2.900;2023-02-11T09:28:39;102921.34;;;6.14;89.69
60852;BME280;48553;50.766;2.900;2023-02-11T09:31:40;102934.69;;;6.15;90.20
60852;BME280;48553;50.766;2.900;2023-02-11T09:34:40;102941.56;;;6.18;89.28
60852;BME280;48553;50.766;2.900;2023-02-11T09:37:41;102938.84;;;6.18;89.12
60852;BME280;48553;50.766;2.900;2023-02-11T09:40:43;102936.66;;;6.20;89.96
60852;BME280;48553;50.766;2.900;2023-02-11T09:43:45;102945.41;;;6.22;89.75
60852;BME280;48553;50.766;2.900;2023-02-11T09:46:53;102947.63;;;6.25;89.76
60852;BME280;48553;50.766;2.900;2023-02-11T09:50:06;102953.09;;;6.25;89.63
60852;BME280;48553;50.766;2.900;2023-02-11T09:53:31;102954.47;;;6.27;89.44
60852;BME280;48553;50.766;2.900;2023-02-11T09:56:35;102947.44;;;6.32;89.99
60852;BME280;48553;50.766;2.900;2023-02-11T09:59:35;102951.00;;;6.32;89.41
60852;BME280;48553;50.766;2.900;2023-02-11T10:02:52;102959.72;;;6.34;89.88
60852;BME280;48553;50.766;2.900;2023-02-11T10:06:33;102954.88;;;6.36;89.79
60852;BME280;48553;50.766;2.900;2023-02-11T10:16:28;102973.22;;;6.46;89.20
60852;BME280;48553;50.766;2.900;2023-02-11T10:23:20;102976.81;;;6.52;90.28
60852;BME280;48553;50.766;2.900;2023-02-11T10:26:22;102971.94;;;6.54;91.06
60852;BME280;48553;50.766;2.900;2023-02-11T10:29:42;102974.44;;;6.55;89.09
60852;BME280;48553;50.766;2.900;2023-02-11T10:32:51;102984.56;;;6.60;91.17
60852;BME280;48553;50.766;2.900;2023-02-11T10:35:53;102984.91;;;6.63;91.09
60852;BME280;48553;50.766;2.900;2023-02-11T10:38:54;102986.59;;;6.69;92.67
60852;BME280;48553;50.766;2.900;2023-02-11T10:42:04;102972.47;;;6.73;92.05
60852;BME280;48553;50.766;2.900;2023-02-11T10:45:45;102987.72;;;6.74;90.57
60852;BME280;48553;50.766;2.900;2023-02-11T10:48:47;102985.91;;;6.79;93.02
60852;BME280;48553;50.766;2.900;2023-02-11T10:51:50;102981.84;;;6.82;92.17
60852;BME280;48553;50.766;2.900;2023-02-11T10:55:19;102989.75;;;6.83;90.22
60852;BME280;48553;50.766;2.900;2023-02-11T10:58:25;102987.59;;;6.85;91.88
60852;BME280;48553;50.766;2.900;2023-02-11T11:01:48;102979.16;;;6.87;89.50
60852;BME280;48553;50.766;2.900;2023-02-11T11:04:54;102976.75;;;6.90;93.11
60852;BME280;48553;50.766;2.900;2023-02-11T11:08:03;102976.50;;;6.92;89.77
60852;BME280;48553;50.766;2.900;2023-02-11T11:11:10;102983.59;;;6.93;88.41
60852;BME280;48553;50.766;2.900;2023-02-11T11:14:18;102972.69;;;6.93;89.00
60852;BME280;48553;50.766;2.900;2023-02-11T11:17:19;102972.75;;;6.98;88.69
60852;BME280;48553;50.766;2.900;2023-02-11T11:23:29;102970.88;;;7.04;92.44
60852;BME280;48553;50.766;2.900;2023-02-11T11:26:41;102968.81;;;7.11;93.63
60852;BME280;48553;50.766;2.900;2023-02-11T11:29:55;102973.97;;;7.13;91.85
60852;BME280;48553;50.766;2.900;2023-02-11T11:32:57;102965.31;;;7.16;92.90
60852;BME280;48553;50.766;2.900;2023-02-11T11:39:01;102962.66;;;7.26;96.14
60852;BME280;48553;50.766;2.900;2023-02-11T11:42:04;102960.53;;;7.33;98.91
60852;BME280;48553;50.766;2.900;2023-02-11T11:48:21;102956.75;;;7.34;97.72
60852;BME280;48553;50.766;2.900;2023-02-11T11:51:23;102969.59;;;7.39;97.57
60852;BME280;48553;50.766;2.900;2023-02-11T11:54:24;102963.13;;;7.45;98.86
60852;BME280;48553;50.766;2.900;2023-02-11T11:57:26;102966.34;;;7.42;97.05
60852;BME280;48553;50.766;2.900;2023-02-11T12:14:23;102968.63;;;7.50;94.10
60852;BME280;48553;50.766;2.900;2023-02-11T12:30:40;102974.47;;;7.64;96.72
60852;BME280;48553;50.766;2.900;2023-02-11T12:43:39;102978.34;;;7.73;95.88
60852;BME280;48553;50.766;2.900;2023-02-11T12:46:54;102968.50;;;7.72;95.00
60852;BME280;48553;50.766;2.900;2023-02-11T13:00:15;102960.97;;;7.84;96.54
60852;BME280;48553;50.766;2.900;2023-02-11T13:06:37;102956.31;;;7.85;95.59
60852;BME280;48553;50.766;2.900;2023-02-11T13:09:56;102958.78;;;7.86;95.71
60852;BME280;48553;50.766;2.900;2023-02-11T13:12:59;102961.00;;;7.89;96.17
60852;BME280;48553;50.766;2.900;2023-02-11T13:19:43;102955.00;;;7.92;95.91
60852;BME280;48553;50.766;2.900;2023-02-11T13:23:00;102965.69;;;7.99;97.23
60852;BME280;48553;50.766;2.900;2023-02-11T13:39:00;102953.97;;;8.04;96.71
60852;BME280;48553;50.766;2.900;2023-02-11T13:42:02;102960.28;;;8.04;96.20
60852;BME280;48553;50.766;2.900;2023-02-11T13:45:16;102958.91;;;8.07;96.47
60852;BME280;48553;50.766;2.900;2023-02-11T13:48:23;102960.28;;;8.04;95.60
60852;BME280;48553;50.766;2.900;2023-02-11T13:51:37;102955.63;;;8.05;96.09
60852;BME280;48553;50.766;2.900;2023-02-11T13:54:38;102949.59;;;8.03;95.21
60852;BME280;48553;50.766;2.900;2023-02-11T13:57:40;102949.59;;;8.03;95.21
60852;BME280;48553;50.766;2.900;2023-02-11T14:04:05;102946.34;;;8.06;94.87
60852;BME280;48553;50.766;2.900;2023-02-11T14:07:35;102939.00;;;8.11;96.07
60852;BME280;48553;50.766;2.900;2023-02-11T14:15:00;102940.63;;;8.12;95.57
60852;BME280;48553;50.766;2.900;2023-02-11T14:18:00;102935.75;;;8.14;95.79
60852;BME280;48553;50.766;2.900;2023-02-11T14:34:18;102928.09;;;8.16;95.51
60852;BME280;48553;50.766;2.900;2023-02-11T14:37:29;102924.00;;;8.19;95.34
60852;BME280;48553;50.766;2.900;2023-02-11T14:40:57;102924.31;;;8.18;95.28
60852;BME280;48553;50.766;2.900;2023-02-11T14:44:03;102937.41;;;8.21;94.87
60852;BME280;48553;50.766;2.900;2023-02-11T14:47:05;102922.94;;;8.20;94.95
60852;BME280;48553;50.766;2.900;2023-02-11T14:50:10;102915.56;;;8.21;95.17
60852;BME280;48553;50.766;2.900;2023-02-11T14:53:16;102921.84;;;8.21;94.92
60852;BME280;48553;50.766;2.900;2023-02-11T14:56:20;102926.75;;;8.19;94.56
60852;BME280;48553;50.766;2.900;2023-02-11T14:59:21;102919.38;;;8.20;94.32
60852;BME280;48553;50.766;2.900;2023-02-11T15:02:23;102918.00;;;8.17;93.10
60852;BME280;48553;50.766;2.900;2023-02-11T15:05:27;102920.47;;;8.19;93.08
60852;BME280;48553;50.766;2.900;2023-02-11T15:08:29;102915.00;;;8.19;93.20
60852;BME280;48553;50.766;2.900;2023-02-11T15:11:33;102920.47;;;8.19;92.77
60852;BME280;48553;50.766;2.900;2023-02-11T15:14:39;102928.66;;;8.19;93.22
60852;BME280;48553;50.766;2.900;2023-02-11T15:17:41;102927.03;;;8.18;92.76
60852;BME280;48553;50.766;2.900;2023-02-11T15:20:42;102928.66;;;8.19;92.46
60852;BME280;48553;50.766;2.900;2023-02-11T15:24:00;102934.38;;;8.17;92.44
60852;BME280;48553;50.766;2.900;2023-02-11T15:27:10;102949.69;;;8.18;92.64
60852;BME280;48553;50.766;2.900;2023-02-11T15:33:22;102940.94;;;8.16;91.54
60852;BME280;48553;50.766;2.900;2023-02-11T15:36:24;102940.94;;;8.16;90.66
60852;BME280;48553;50.766;2.900;2023-02-11T15:39:36;102936.28;;;8.16;90.83
60852;BME280;48553;50.766;2.900;2023-02-11T15:42:36;102953.50;;;8.17;90.94
60852;BME280;48553;50.766;2.900;2023-02-11T15:45:56;102951.63;;;8.18;90.95
60852;BME280;48553;50.766;2.900;2023-02-11T15:48:58;102948.88;;;8.18;90.63
60852;BME280;48553;50.766;2.900;2023-02-11T15:51:59;102951.06;;;8.15;90.20
60852;BME280;48553;50.766;2.900;2023-02-11T15:55:00;102944.75;;;8.15;90.69
60852;BME280;48553;50.766;2.900;2023-02-11T15:58:01;102956.53;;;8.15;90.75
60852;BME280;48553;50.766;2.900;2023-02-11T16:01:02;102949.41;;;8.14;90.69
60852;BME280;48553;50.766;2.900;2023-02-11T16:04:03;102946.66;;;8.14;90.62
60852;BME280;48553;50.766;2.900;2023-02-11T16:07:04;102951.31;;;8.14;90.40
60852;BME280;48553;50.766;2.900;2023-02-11T16:10:23;102951.31;;;8.14;90.18
60852;BME280;48553;50.766;2.900;2023-02-11T16:13:25;102960.31;;;8.14;89.73
60852;BME280;48553;50.766;2.900;2023-02-11T16:16:32;102948.31;;;8.15;89.25
60852;BME280;48553;50.766;2.900;2023-02-11T16:19:34;102942.00;;;8.15;89.33
60852;BME280;48553;50.766;2.900;2023-02-11T16:22:35;102949.41;;;8.14;88.85
60852;BME280;48553;50.766;2.900;2023-02-11T16:25:41;102948.31;;;8.15;88.96
60852;BME280;48553;50.766;2.900;2023-02-11T16:28:41;102950.50;;;8.13;88.69
60852;BME280;48553;50.766;2.900;2023-02-11T16:31:44;102948.56;;;8.14;88.15
60852;BME280;48553;50.766;2.900;2023-02-11T16:34:46;102947.75;;;8.13;88.76
60852;BME280;48553;50.766;2.900;2023-02-11T16:37:46;102952.41;;;8.13;88.61
60852;BME280;48553;50.766;2.900;2023-02-11T16:40:46;102952.41;;;8.13;88.55
60852;BME280;48553;50.766;2.900;2023-02-11T16:43:50;102957.88;;;8.13;88.43
60852;BME280;48553;50.766;2.900;2023-02-11T16:46:51;102962.50;;;8.12;88.50
60852;BME280;48553;50.766;2.900;2023-02-11T16:49:52;102975.34;;;8.12;88.63
60852;BME280;48553;50.766;2.900;2023-02-11T16:52:53;102978.31;;;8.10;88.51
60852;BME280;48553;50.766;2.900;2023-02-11T16:55:53;102973.69;;;8.11;88.70
60852;BME280;48553;50.766;2.900;2023-02-11T16:58:53;102972.84;;;8.10;88.58
60852;BME280;48553;50.766;2.900;2023-02-11T17:01:54;102988.44;;;8.10;88.52
60852;BME280;48553;50.766;2.900;2023-02-11T17:04:57;102990.34;;;8.09;89.16
60852;BME280;48553;50.766;2.900;2023-02-11T17:07:58;102990.34;;;8.09;88.71
60852;BME280;48553;50.766;2.900;2023-02-11T17:11:01;102988.44;;;8.10;89.11
60852;BME280;48553;50.766;2.900;2023-02-11T17:14:01;102986.78;;;8.09;88.85
60852;BME280;48553;50.766;2.900;2023-02-11T17:17:03;102991.94;;;8.05;90.17
60852;BME280;48553;50.766;2.900;2023-02-11T17:20:04;102995.78;;;8.04;90.08
60852;BME280;48553;50.766;2.900;2023-02-11T17:23:04;102992.47;;;8.02;90.20
60852;BME280;48553;50.766;2.900;2023-02-11T17:26:05;102993.84;;;8.05;90.05
60852;BME280;48553;50.766;2.900;2023-02-11T17:29:08;102999.00;;;8.01;90.52
60852;BME280;48553;50.766;2.900;2023-02-11T17:32:09;103005.81;;;7.99;90.84
60852;BME280;48553;50.766;2.900;2023-02-11T17:35:09;103010.72;;;7.97;91.21
60852;BME280;48553;50.766;2.900;2023-02-11T17:38:09;103014.59;;;8.01;90.87
60852;BME280;48553;50.766;2.900;2023-02-11T17:41:10;103020.84;;;8.01;90.57
60852;BME280;48553;50.766;2.900;2023-02-11T17:44:11;103019.50;;;8.04;90.53
60852;BME280;48553;50.766;2.900;2023-02-11T17:47:13;103021.13;;;8.00;90.56
60852;BME280;48553;50.766;2.900;2023-02-11T17:50:14;103022.78;;;8.01;90.55
60852;BME280;48553;50.766;2.900;2023-02-11T17:53:14;103015.94;;;7.98;90.79
60852;BME280;48553;50.766;2.900;2023-02-11T17:56:15;103016.75;;;7.99;90.71
60852;BME280;48553;50.766;2.900;2023-02-11T17:59:15;103015.94;;;7.98;90.76
60852;BME280;48553;50.766;2.900;2023-02-11T18:02:16;103009.38;;;7.99;90.59
60852;BME280;48553;50.766;2.900;2023-02-11T18:05:17;103017.84;;;7.98;90.59
60852;BME280;48553;50.766;2.900;2023-02-11T18:08:18;103019.47;;;7.99;90.50
60852;BME280;48553;50.766;2.900;2023-02-11T18:11:18;103019.75;;;7.97;90.60
60852;BME280;48553;50.766;2.900;2023-02-11T18:14:21;103023.56;;;7.96;90.73
60852;BME280;48553;50.766;2.900;2023-02-11T18:17:22;103033.63;;;7.90;91.03
60852;BME280;48553;50.766;2.900;2023-02-11T18:20:22;103032.28;;;7.93;91.11
60852;BME280;48553;50.766;2.900;2023-02-11T18:23:22;103039.91;;;7.91;91.17
60852;BME280;48553;50.766;2.900;2023-02-11T18:26:23;103045.63;;;7.89;91.22
60852;BME280;48553;50.766;2.900;2023-02-11T18:29:27;103040.41;;;7.88;91.17
60852;BME280;48553;50.766;2.900;2023-02-11T18:32:27;103043.41;;;7.86;90.93
60852;BME280;48553;50.766;2.900;2023-02-11T18:35:28;103055.41;;;7.85;91.28
60852;BME280;48553;50.766;2.900;2023-02-11T18:38:28;103048.06;;;7.86;91.34
60852;BME280;48553;50.766;2.900;2023-02-11T18:41:28;103047.50;;;7.84;91.02
60852;BME280;48553;50.766;2.900;2023-02-11T18:44:29;103066.31;;;7.85;91.17
60852;BME280;48553;50.766;2.900;2023-02-11T18:47:30;103052.69;;;7.85;91.17